Time;durP1;ratioP1;P1;durP2;ratioP2;P2;SDS_P1;SDS_P2;PMS_P1;PMS_P2;Temp;Humidity;BMP_temperature;BMP_pressure;BME280_temperature;BME280_humidity;BME280_pressure;Samples;Min_cycle;Max_cycle;Signal;HPM_P1;HPM_P2
2023/10/18 00:00:36;;;;;;;2.70;2.20;;;;;;;;;;5050461;28;20484;-54
2023/10/18 00:03:03;;;;;;;2.77;1.80;;;;;;;;;;5049370;28;20449;-53
2023/10/18 00:05:31;;;;;;;1.90;1.30;;;;;;;;;;5049661;28;20462;-54
2023/10/18 00:07:59;;;;;;;3.97;1.83;;;;;;;;;;5049836;28;20469;-54
2023/10/18 00:10:27;;;;;;;2.43;1.40;;;;;;;;;;5047872;28;20446;-55
2023/10/18 00:12:55;;;;;;;1.80;1.27;;;;;;;;;;5047475;28;20720;-55
2023/10/18 00:15:23;;;;;;;2.50;1.43;;;;;;;;;;5049431;28;20445;-54
2023/10/18 00:17:50;;;;;;;3.30;1.60;;;;;;;;;;5042886;28;20493;-56
2023/10/18 00:20:21;;;;;;;2.10;1.40;;;;;;;;;;5048206;28;20475;-55
2023/10/18 00:22:48;;;;;;;2.97;1.30;;;;;;;;;;5044123;28;20578;-54
2023/10/18 00:25:15;;;;;;;2.63;1.60;;;;;;;;;;5043087;28;20507;-54
2023/10/18 00:27:45;;;;;;;2.40;1.27;;;;;;;;;;5046025;28;20469;-55
2023/10/18 00:30:14;;;;;;;2.00;1.30;;;;;;;;;;5049628;28;20931;-54
2023/10/18 00:32:42;;;;;;;2.13;1.23;;;;;;;;;;5043728;28;20981;-54
2023/10/18 00:35:16;;;;;;;2.43;1.30;;;;;;;;;;5050005;28;20450;-54
2023/10/18 00:37:44;;;;;;;2.30;1.60;;;;;;;;;;5043881;28;20477;-54
2023/10/18 00:40:20;;;;;;;2.10;1.30;;;;;;;;;;5044292;28;20483;-54
2023/10/18 00:42:52;;;;;;;1.90;1.63;;;;;;;;;;5049088;28;20445;-54
2023/10/18 00:45:22;;;;;;;2.00;1.40;;;;;;;;;;5049369;28;20947;-54
2023/10/18 00:47:50;;;;;;;2.73;1.40;;;;;;;;;;5045249;28;20479;-55
2023/10/18 00:50:18;;;;;;;2.20;1.50;;;;;;;;;;5041350;28;20495;-54
2023/10/18 00:52:45;;;;;;;1.90;1.13;;;;;;;;;;5044276;28;20449;-54
2023/10/18 00:55:13;;;;;;;2.00;1.40;;;;;;;;;;5048634;28;20507;-54
2023/10/18 00:57:40;;;;;;;1.40;1.00;;;;;;;;;;5042522;28;21029;-54
2023/10/18 01:00:11;;;;;;;2.40;1.47;;;;;;;;;;5049801;28;20453;-54
2023/10/18 01:02:43;;;;;;;1.80;1.30;;;;;;;;;;5045929;28;20474;-54
2023/10/18 01:05:12;;;;;;;3.20;1.80;;;;;;;;;;5051204;28;20536;-54
2023/10/18 01:07:41;;;;;;;2.17;1.53;;;;;;;;;;5052445;28;20487;-54
2023/10/18 01:10:09;;;;;;;2.07;1.43;;;;;;;;;;5052877;28;21017;-54
2023/10/18 01:12:38;;;;;;;1.80;1.37;;;;;;;;;;5052877;28;20799;-55
2023/10/18 01:15:07;;;;;;;1.97;1.57;;;;;;;;;;5050614;28;20449;-54
2023/10/18 01:17:35;;;;;;;1.70;1.10;;;;;;;;;;5046828;28;20469;-54
2023/10/18 01:20:27;;;;;;;2.33;1.60;;;;;;;;;;5050912;28;20950;-53
2023/10/18 01:22:53;;;;;;;2.10;1.63;;;;;;;;;;5049845;28;20430;-54
2023/10/18 01:25:22;;;;;;;1.53;1.07;;;;;;;;;;5050646;28;20445;-55
2023/10/18 01:27:49;;;;;;;1.90;1.30;;;;;;;;;;5048071;28;20879;-55
2023/10/18 01:30:19;;;;;;;1.80;1.40;;;;;;;;;;5052602;28;20990;-54
2023/10/18 01:32:46;;;;;;;1.87;1.03;;;;;;;;;;5052176;28;20499;-54
2023/10/18 01:35:15;;;;;;;3.70;1.67;;;;;;;;;;5052027;28;20471;-55
2023/10/18 01:37:43;;;;;;;2.03;1.30;;;;;;;;;;5051257;28;20991;-54
2023/10/18 01:40:41;;;;;;;2.10;1.07;;;;;;;;;;5051173;28;20859;-54
2023/10/18 01:43:11;;;;;;;1.50;1.27;;;;;;;;;;5048231;28;20888;-54
2023/10/18 01:45:39;;;;;;;2.37;1.50;;;;;;;;;;5051893;28;20449;-54
2023/10/18 01:48:09;;;;;;;3.90;1.73;;;;;;;;;;5051218;28;20474;-54
2023/10/18 01:50:38;;;;;;;2.03;1.30;;;;;;;;;;5045205;28;20456;-54
2023/10/18 01:53:15;;;;;;;2.10;1.30;;;;;;;;;;5050637;28;20452;-54
2023/10/18 01:55:43;;;;;;;1.83;1.00;;;;;;;;;;5046759;28;20453;-55
2023/10/18 01:58:13;;;;;;;2.00;1.20;;;;;;;;;;5048491;28;20465;-54
2023/10/18 02:00:44;;;;;;;2.97;1.43;;;;;;;;;;5048467;28;20571;-54
2023/10/18 02:03:13;;;;;;;2.90;1.63;;;;;;;;;;5051503;28;20970;-55
2023/10/18 02:05:43;;;;;;;1.80;1.33;;;;;;;;;;5052070;28;21081;-54
2023/10/18 02:08:11;;;;;;;1.83;1.40;;;;;;;;;;5048295;28;20549;-54
2023/10/18 02:10:40;;;;;;;2.77;1.57;;;;;;;;;;5047860;28;20480;-54
2023/10/18 02:13:08;;;;;;;1.90;1.50;;;;;;;;;;5049157;28;20499;-54
2023/10/18 02:15:39;;;;;;;1.97;1.23;;;;;;;;;;5050393;28;20441;-54
2023/10/18 02:18:06;;;;;;;1.50;1.23;;;;;;;;;;5051073;28;20472;-54
2023/10/18 02:20:35;;;;;;;2.10;1.40;;;;;;;;;;5047471;28;20957;-54
2023/10/18 02:23:10;;;;;;;2.67;1.83;;;;;;;;;;5049056;28;20560;-55
2023/10/18 02:25:39;;;;;;;2.20;1.57;;;;;;;;;;5048612;28;20449;-55
2023/10/18 02:28:09;;;;;;;2.07;1.73;;;;;;;;;;5046162;28;21015;-54
2023/10/18 02:30:39;;;;;;;2.90;2.50;;;;;;;;;;5051184;28;20910;-54
2023/10/18 02:33:06;;;;;;;3.23;2.93;;;;;;;;;;5051055;28;20461;-55
2023/10/18 02:35:40;;;;;;;2.07;1.87;;;;;;;;;;5051523;28;20499;-54
2023/10/18 02:38:10;;;;;;;2.17;1.30;;;;;;;;;;5047968;28;20564;-54
2023/10/18 02:40:40;;;;;;;1.70;1.13;;;;;;;;;;5051243;28;20453;-54
2023/10/18 02:43:11;;;;;;;2.27;1.47;;;;;;;;;;5049068;28;20550;-54
2023/10/18 02:45:42;;;;;;;2.20;1.67;;;;;;;;;;5050628;28;20449;-54
2023/10/18 02:48:14;;;;;;;1.80;1.43;;;;;;;;;;5049589;28;20479;-55
2023/10/18 02:50:41;;;;;;;2.13;1.47;;;;;;;;;;5043040;28;20453;-56
2023/10/18 02:53:08;;;;;;;2.40;1.40;;;;;;;;;;5049018;28;20491;-54
2023/10/18 02:55:41;;;;;;;1.87;1.27;;;;;;;;;;5048195;28;21005;-54
2023/10/18 02:58:09;;;;;;;2.10;1.33;;;;;;;;;;5046841;28;20475;-54
2023/10/18 03:00:42;;;;;;;2.27;1.60;;;;;;;;;;5049449;28;20994;-55
2023/10/18 03:03:10;;;;;;;1.73;1.47;;;;;;;;;;5050255;28;20988;-54
2023/10/18 03:05:42;;;;;;;2.27;1.20;;;;;;;;;;5049751;28;20461;-53
2023/10/18 03:08:10;;;;;;;3.37;1.30;;;;;;;;;;5050265;28;20476;-54
2023/10/18 03:10:44;;;;;;;2.10;1.37;;;;;;;;;;5051151;28;20464;-54
2023/10/18 03:13:13;;;;;;;2.00;1.20;;;;;;;;;;5050500;28;20454;-54
2023/10/18 03:15:53;;;;;;;1.90;1.00;;;;;;;;;;5050299;28;20943;-55
2023/10/18 03:18:24;;;;;;;2.90;1.47;;;;;;;;;;5048349;28;20495;-54
2023/10/18 03:20:56;;;;;;;2.00;1.30;;;;;;;;;;5050438;28;20829;-54
2023/10/18 03:23:26;;;;;;;1.47;1.00;;;;;;;;;;5050209;28;20481;-54
2023/10/18 03:26:07;;;;;;;1.60;1.10;;;;;;;;;;5050241;28;20460;-54
2023/10/18 03:28:35;;;;;;;3.07;2.13;;;;;;;;;;5045484;28;20468;-54
2023/10/18 03:31:21;;;;;;;2.63;1.40;;;;;;;;;;5050723;28;20475;-54
2023/10/18 03:33:50;;;;;;;4.70;1.53;;;;;;;;;;5048404;28;20480;-54
2023/10/18 03:36:20;;;;;;;3.23;1.43;;;;;;;;;;5049312;28;20454;-54
2023/10/18 03:38:53;;;;;;;1.93;1.57;;;;;;;;;;5049289;28;20791;-54
2023/10/18 03:41:22;;;;;;;2.40;1.60;;;;;;;;;;5048791;28;20527;-54
2023/10/18 03:43:49;;;;;;;2.33;1.80;;;;;;;;;;5050471;28;20940;-54
2023/10/18 03:46:19;;;;;;;6.27;4.40;;;;;;;;;;5050059;28;20876;-54
2023/10/18 03:48:54;;;;;;;4.53;4.03;;;;;;;;;;5049788;28;20536;-54
2023/10/18 03:51:23;;;;;;;2.57;2.00;;;;;;;;;;5049561;28;20527;-54
2023/10/18 03:53:52;;;;;;;1.90;1.50;;;;;;;;;;5048142;28;20457;-54
2023/10/18 03:56:21;;;;;;;2.57;2.10;;;;;;;;;;5049181;28;20536;-53
2023/10/18 03:59:00;;;;;;;2.23;1.93;;;;;;;;;;5048090;28;20449;-55
2023/10/18 04:01:39;;;;;;;2.17;1.80;;;;;;;;;;5044551;28;20852;-54
2023/10/18 04:04:07;;;;;;;2.00;1.37;;;;;;;;;;5049170;28;20463;-54
2023/10/18 04:06:36;;;;;;;2.27;1.60;;;;;;;;;;5049645;28;20469;-54
2023/10/18 04:09:13;;;;;;;2.93;2.73;;;;;;;;;;5049448;28;20952;-53
2023/10/18 04:11:41;;;;;;;1.87;1.57;;;;;;;;;;5050002;28;20441;-55
2023/10/18 04:14:10;;;;;;;2.30;1.67;;;;;;;;;;5049697;28;20488;-54
2023/10/18 04:16:40;;;;;;;3.30;1.60;;;;;;;;;;5045788;28;20531;-55
2023/10/18 04:19:08;;;;;;;2.10;1.77;;;;;;;;;;5047228;28;20445;-55
2023/10/18 04:21:35;;;;;;;3.03;1.93;;;;;;;;;;5050039;28;20449;-55
2023/10/18 04:24:04;;;;;;;47.13;34.90;;;;;;;;;;5048749;28;20445;-54
2023/10/18 04:26:31;;;;;;;6.53;5.63;;;;;;;;;;5045538;28;20450;-54
2023/10/18 04:29:01;;;;;;;5.20;3.53;;;;;;;;;;5046667;28;20454;-54
2023/10/18 04:31:29;;;;;;;4.50;2.97;;;;;;;;;;5045144;28;20441;-55
2023/10/18 04:33:58;;;;;;;2.23;1.97;;;;;;;;;;5049313;28;20450;-54
2023/10/18 04:36:25;;;;;;;2.57;2.00;;;;;;;;;;5047929;28;20442;-54
2023/10/18 04:38:53;;;;;;;2.30;2.00;;;;;;;;;;5044757;28;20959;-54
2023/10/18 04:41:27;;;;;;;3.07;1.60;;;;;;;;;;5053191;28;20534;-56
2023/10/18 04:43:59;;;;;;;6.00;3.83;;;;;;;;;;5053565;28;20563;-55
2023/10/18 04:46:27;;;;;;;4.10;3.17;;;;;;;;;;5052225;28;20967;-54
2023/10/18 04:51:45;;;;;;;3.40;2.40;;;;;;;;;;5046739;28;21022;-55
2023/10/18 04:54:15;;;;;;;3.33;3.03;;;;;;;;;;5045995;28;20954;-54
2023/10/18 04:56:44;;;;;;;3.07;1.60;;;;;;;;;;5046330;28;20462;-55
2023/10/18 04:59:20;;;;;;;4.00;3.50;;;;;;;;;;5045374;28;20506;-55
2023/10/18 05:01:56;;;;;;;3.17;2.50;;;;;;;;;;5050725;28;20447;-54
2023/10/18 05:04:28;;;;;;;2.57;2.07;;;;;;;;;;5048707;28;20510;-55
2023/10/18 05:06:56;;;;;;;2.83;2.53;;;;;;;;;;5044511;28;20530;-55
2023/10/18 05:09:34;;;;;;;3.60;3.20;;;;;;;;;;5048406;28;20445;-55
2023/10/18 05:12:07;;;;;;;3.23;2.87;;;;;;;;;;5052117;28;20974;-54
2023/10/18 05:14:42;;;;;;;4.13;3.73;;;;;;;;;;5044468;28;20836;-54
2023/10/18 05:17:17;;;;;;;3.83;3.43;;;;;;;;;;5039986;28;20543;-55
2023/10/18 05:19:45;;;;;;;5.20;4.67;;;;;;;;;;5041684;28;20476;-55
2023/10/18 05:22:19;;;;;;;5.23;4.17;;;;;;;;;;5039740;28;20473;-54
2023/10/18 05:24:55;;;;;;;4.20;2.90;;;;;;;;;;5041756;28;20961;-54
2023/10/18 05:27:24;;;;;;;3.30;2.80;;;;;;;;;;5039528;28;20472;-56
2023/10/18 05:29:53;;;;;;;2.53;2.33;;;;;;;;;;5040141;28;20870;-54
2023/10/18 05:32:37;;;;;;;2.80;2.50;;;;;;;;;;5045574;28;20442;-55
2023/10/18 05:35:19;;;;;;;5.30;2.80;;;;;;;;;;5050799;28;20440;-54
2023/10/18 05:38:06;;;;;;;4.47;3.77;;;;;;;;;;5099620;22;20493;-56
2023/10/18 05:40:46;;;;;;;3.87;3.17;;;;;;;;;;5049579;28;20849;-56
2023/10/18 05:43:22;;;;;;;5.90;3.33;;;;;;;;;;5048878;28;20870;-54
2023/10/18 05:45:50;;;;;;;3.27;2.50;;;;;;;;;;5049357;28;21025;-55
2023/10/18 05:48:22;;;;;;;2.50;2.10;;;;;;;;;;5047401;28;20465;-54
2023/10/18 05:50:56;;;;;;;3.20;2.90;;;;;;;;;;5052244;28;20469;-53
2023/10/18 05:53:29;;;;;;;2.80;2.60;;;;;;;;;;5050705;28;20858;-53
2023/10/18 05:55:56;;;;;;;3.00;2.60;;;;;;;;;;5047269;28;20449;-54
2023/10/18 05:58:26;;;;;;;6.83;2.80;;;;;;;;;;5049428;28;20550;-54
2023/10/18 06:00:55;;;;;;;3.97;2.97;;;;;;;;;;5051026;28;20450;-53
2023/10/18 06:03:25;;;;;;;3.73;3.33;;;;;;;;;;5049503;28;20542;-54
2023/10/18 06:05:55;;;;;;;4.10;3.20;;;;;;;;;;5050543;28;20503;-55
2023/10/18 06:08:23;;;;;;;2.73;2.20;;;;;;;;;;5051353;28;20592;-57
2023/10/18 06:10:55;;;;;;;2.77;2.47;;;;;;;;;;5050708;28;20449;-55
2023/10/18 06:13:23;;;;;;;3.43;2.70;;;;;;;;;;5050782;28;20464;-56
2023/10/18 06:15:51;;;;;;;4.40;3.73;;;;;;;;;;5050912;28;20948;-56
2023/10/18 06:18:26;;;;;;;7.20;5.33;;;;;;;;;;5046414;28;20519;-56
2023/10/18 06:20:58;;;;;;;4.60;4.13;;;;;;;;;;5050745;28;20498;-54
2023/10/18 06:23:37;;;;;;;5.73;5.17;;;;;;;;;;5048278;28;20995;-53
2023/10/18 06:28:49;;;;;;;6.90;5.93;;;;;;;;;;5051440;28;21023;-55
2023/10/18 06:31:18;;;;;;;7.30;6.17;;;;;;;;;;5051854;28;20962;-54
2023/10/18 06:33:51;;;;;;;7.40;5.13;;;;;;;;;;5051566;28;20453;-55
2023/10/18 06:36:21;;;;;;;5.70;4.40;;;;;;;;;;5050462;28;20561;-55
2023/10/18 06:38:50;;;;;;;6.03;4.53;;;;;;;;;;5065882;28;20476;-56
2023/10/18 06:41:20;;;;;;;3.87;3.20;;;;;;;;;;5068717;28;20502;-53
2023/10/18 06:43:48;;;;;;;3.63;2.83;;;;;;;;;;5070874;28;20480;-53
2023/10/18 06:46:22;;;;;;;12.30;8.40;;;;;;;;;;5072071;28;20528;-57
2023/10/18 06:48:50;;;;;;;9.80;8.93;;;;;;;;;;5071614;28;20552;-53
2023/10/18 06:51:18;;;;;;;8.50;7.73;;;;;;;;;;5071420;28;20441;-53
2023/10/18 06:53:50;;;;;;;6.10;5.50;;;;;;;;;;5071153;28;20441;-53
2023/10/18 06:56:22;;;;;;;6.07;5.27;;;;;;;;;;5068812;28;20482;-56
2023/10/18 06:58:49;;;;;;;7.80;7.00;;;;;;;;;;5071259;28;20492;-56
2023/10/18 07:01:20;;;;;;;7.13;6.43;;;;;;;;;;5075466;28;20444;-55
2023/10/18 07:03:48;;;;;;;8.43;7.17;;;;;;;;;;5070370;28;20483;-53
2023/10/18 07:06:23;;;;;;;13.73;8.03;;;;;;;;;;5071623;28;20526;-54
2023/10/18 07:08:51;;;;;;;12.00;8.00;;;;;;;;;;5073442;28;20468;-54
2023/10/18 07:11:20;;;;;;;11.83;8.90;;;;;;;;;;5071045;28;20916;-56
2023/10/18 07:13:50;;;;;;;11.77;10.67;;;;;;;;;;5070935;28;20650;-53
2023/10/18 07:16:25;;;;;;;11.60;10.60;;;;;;;;;;5070782;28;20448;-54
2023/10/18 07:19:06;;;;;;;10.50;8.90;;;;;;;;;;5070801;28;20482;-53
2023/10/18 07:21:33;;;;;;;9.87;8.97;;;;;;;;;;5071077;28;20440;-53
2023/10/18 07:24:09;;;;;;;10.43;9.40;;;;;;;;;;5070840;28;20574;-55
2023/10/18 07:26:38;;;;;;;9.73;8.83;;;;;;;;;;5070947;28;20452;-55
2023/10/18 07:29:06;;;;;;;10.47;9.27;;;;;;;;;;5073162;28;20810;-55
2023/10/18 07:31:38;;;;;;;11.87;10.67;;;;;;;;;;5062648;28;20521;-55
2023/10/18 07:34:07;;;;;;;11.93;10.67;;;;;;;;;;5071574;28;21229;-53
2023/10/18 07:36:38;;;;;;;13.13;10.80;;;;;;;;;;5070469;28;20448;-53
2023/10/18 07:39:05;;;;;;;7.63;6.93;;;;;;;;;;5069474;28;20451;-55
2023/10/18 07:41:34;;;;;;;6.20;5.60;;;;;;;;;;5070503;28;20474;-55
2023/10/18 07:44:05;;;;;;;4.90;4.37;;;;;;;;;;5070563;28;20523;-53
2023/10/18 07:46:34;;;;;;;5.37;4.67;;;;;;;;;;5070510;28;20955;-54
2023/10/18 07:49:11;;;;;;;4.43;3.77;;;;;;;;;;5070596;28;20570;-57
2023/10/18 07:51:43;;;;;;;5.97;4.50;;;;;;;;;;5066416;28;20506;-54
2023/10/18 07:54:14;;;;;;;6.10;4.30;;;;;;;;;;5068630;28;20825;-55
2023/10/18 07:56:48;;;;;;;6.97;6.27;;;;;;;;;;5069215;28;20485;-54
2023/10/18 07:59:29;;;;;;;9.00;7.53;;;;;;;;;;5070399;28;20440;-55
2023/10/18 08:02:12;;;;;;;8.30;7.50;;;;;;;;;;5069724;28;20523;-56
2023/10/18 08:04:40;;;;;;;9.70;7.20;;;;;;;;;;5070311;28;20486;-53
2023/10/18 08:07:10;;;;;;;6.93;5.97;;;;;;;;;;5072019;28;20448;-54
2023/10/18 08:09:39;;;;;;;4.97;3.90;;;;;;;;;;5070303;28;20480;-56
2023/10/18 08:12:08;;;;;;;4.13;3.60;;;;;;;;;;5070166;28;20496;-53
2023/10/18 08:14:38;;;;;;;10.00;4.03;;;;;;;;;;5066541;28;20443;-57
2023/10/18 08:17:09;;;;;;;5.90;4.83;;;;;;;;;;5074047;28;20925;-57
2023/10/18 08:19:44;;;;;;;11.40;9.27;;;;;;;;;;5074834;28;20530;-54
2023/10/18 08:22:22;;;;;;;9.63;8.73;;;;;;;;;;5074285;28;20481;-53
2023/10/18 08:24:53;;;;;;;8.90;8.07;;;;;;;;;;5074489;28;20479;-57
2023/10/18 08:27:20;;;;;;;6.67;6.07;;;;;;;;;;5074371;28;20529;-54
2023/10/18 08:29:56;;;;;;;8.00;5.93;;;;;;;;;;5074427;28;20440;-56
2023/10/18 08:32:31;;;;;;;6.70;5.87;;;;;;;;;;5073902;28;20792;-53
2023/10/18 08:35:07;;;;;;;6.13;5.53;;;;;;;;;;5074070;28;20955;-55
2023/10/18 08:37:36;;;;;;;8.70;6.07;;;;;;;;;;5074041;28;20970;-53
2023/10/18 08:40:08;;;;;;;5.63;4.03;;;;;;;;;;5074217;28;20440;-53
2023/10/18 08:42:42;;;;;;;3.97;3.57;;;;;;;;;;5073292;28;20501;-53
2023/10/18 08:45:19;;;;;;;3.87;3.00;;;;;;;;;;5072695;28;20534;-53
2023/10/18 08:47:49;;;;;;;2.80;2.07;;;;;;;;;;5074002;28;20781;-53
2023/10/18 08:50:18;;;;;;;4.63;2.87;;;;;;;;;;5074129;28;20448;-55
2023/10/18 08:52:48;;;;;;;3.40;2.80;;;;;;;;;;5073587;28;20807;-53
2023/10/18 08:55:43;;;;;;;4.17;3.30;;;;;;;;;;5073303;28;20479;-54
2023/10/18 08:58:11;;;;;;;4.23;2.73;;;;;;;;;;5072328;28;20486;-52
2023/10/18 09:03:27;;;;;;;3.83;2.80;;;;;;;;;;5070871;28;20471;-53
2023/10/18 09:06:02;;;;;;;2.50;2.30;;;;;;;;;;5071742;28;20561;-53
2023/10/18 09:08:35;;;;;;;3.30;2.27;;;;;;;;;;5072817;28;20474;-54
2023/10/18 09:11:04;;;;;;;3.00;1.63;;;;;;;;;;5073045;28;20537;-53
2023/10/18 09:13:41;;;;;;;4.10;2.07;;;;;;;;;;5073152;28;20463;-54
2023/10/18 09:16:12;;;;;;;2.83;1.93;;;;;;;;;;5070512;28;20444;-53
2023/10/18 09:18:39;;;;;;;2.70;1.67;;;;;;;;;;5073170;28;20483;-53
2023/10/18 09:21:17;;;;;;;2.20;1.70;;;;;;;;;;5070253;28;20955;-54
2023/10/18 09:23:47;;;;;;;2.70;2.10;;;;;;;;;;5071655;28;20533;-54
2023/10/18 09:26:19;;;;;;;3.30;2.80;;;;;;;;;;5070055;28;20445;-55
2023/10/18 09:28:47;;;;;;;3.47;3.17;;;;;;;;;;5065760;28;20488;-57
2023/10/18 09:31:18;;;;;;;3.27;2.97;;;;;;;;;;5069782;28;20799;-54
2023/10/18 09:33:49;;;;;;;3.60;3.30;;;;;;;;;;5067777;28;20448;-53
2023/10/18 09:36:23;;;;;;;4.10;3.00;;;;;;;;;;5065365;28;20442;-57
2023/10/18 09:38:51;;;;;;;5.83;2.77;;;;;;;;;;5065226;28;20471;-54
2023/10/18 09:41:19;;;;;;;3.27;2.60;;;;;;;;;;5073335;28;20437;-54
2023/10/18 09:43:47;;;;;;;2.60;2.23;;;;;;;;;;5071373;28;20521;-55
2023/10/18 09:46:14;;;;;;;3.03;2.10;;;;;;;;;;5072541;28;20536;-57
2023/10/18 09:48:44;;;;;;;2.33;1.77;;;;;;;;;;5072790;28;20575;-56
2023/10/18 09:51:14;;;;;;;2.50;1.70;;;;;;;;;;5070995;28;20468;-53
2023/10/18 09:53:43;;;;;;;1.67;1.10;;;;;;;;;;5071004;28;20539;-57
2023/10/18 09:56:12;;;;;;;2.23;1.37;;;;;;;;;;5072503;28;20539;-56
2023/10/18 09:58:42;;;;;;;1.90;1.40;;;;;;;;;;5066965;28;21030;-55
2023/10/18 10:01:14;;;;;;;1.87;1.20;;;;;;;;;;5072361;28;20442;-57
2023/10/18 10:03:51;;;;;;;1.97;1.50;;;;;;;;;;5072334;28;20472;-56
2023/10/18 10:06:21;;;;;;;2.80;1.60;;;;;;;;;;5070670;28;20479;-53
2023/10/18 10:08:49;;;;;;;3.40;1.60;;;;;;;;;;5065518;28;20577;-53
2023/10/18 10:11:19;;;;;;;2.07;1.50;;;;;;;;;;5074047;28;20475;-57
2023/10/18 10:13:49;;;;;;;2.50;1.33;;;;;;;;;;5072159;28;20449;-55
2023/10/18 10:16:18;;;;;;;2.20;1.70;;;;;;;;;;5071339;28;20525;-56
2023/10/18 10:18:49;;;;;;;2.50;1.70;;;;;;;;;;5071949;28;20460;-54
2023/10/18 10:21:21;;;;;;;2.67;1.70;;;;;;;;;;5071686;28;20863;-53
2023/10/18 10:23:48;;;;;;;2.17;1.60;;;;;;;;;;5071500;28;20484;-53
2023/10/18 10:26:27;;;;;;;2.33;1.87;;;;;;;;;;5068802;28;20503;-54
2023/10/18 10:31:52;;;;;;;2.93;1.70;;;;;;;;;;5047226;28;20433;-55
2023/10/18 10:34:34;;;;;;;2.13;1.70;;;;;;;;;;5064434;28;20865;-57
2023/10/18 10:37:06;;;;;;;1.93;1.40;;;;;;;;;;5068245;28;20514;-57
2023/10/18 10:39:35;;;;;;;2.20;1.63;;;;;;;;;;5070828;28;20923;-55
2023/10/18 10:42:09;;;;;;;2.40;1.40;;;;;;;;;;5068551;28;20444;-55
2023/10/18 10:44:54;;;;;;;2.97;1.60;;;;;;;;;;5068594;28;20561;-54
2023/10/18 10:47:29;;;;;;;2.23;1.87;;;;;;;;;;5069395;28;20464;-57
2023/10/18 10:49:59;;;;;;;3.67;1.60;;;;;;;;;;5066853;28;20467;-57
2023/10/18 10:52:29;;;;;;;3.07;1.93;;;;;;;;;;5071002;28;20533;-55
2023/10/18 10:55:02;;;;;;;1.97;1.40;;;;;;;;;;5065964;28;20494;-55
2023/10/18 10:57:30;;;;;;;2.40;1.60;;;;;;;;;;5069260;28;21061;-55
2023/10/18 10:59:58;;;;;;;3.50;1.57;;;;;;;;;;5067740;28;20452;-54
2023/10/18 11:02:39;;;;;;;3.00;1.97;;;;;;;;;;5070222;28;20947;-54
2023/10/18 11:05:16;;;;;;;3.30;1.80;;;;;;;;;;5070967;28;20487;-54
2023/10/18 11:07:45;;;;;;;2.70;2.13;;;;;;;;;;5068175;28;20865;-54
2023/10/18 11:10:16;;;;;;;2.77;2.17;;;;;;;;;;5070476;28;20825;-55
2023/10/18 11:12:46;;;;;;;2.80;1.97;;;;;;;;;;5064535;28;20449;-54
2023/10/18 11:15:17;;;;;;;3.23;2.80;;;;;;;;;;5067370;28;20919;-57
2023/10/18 11:17:45;;;;;;;2.43;1.70;;;;;;;;;;5070477;28;20553;-55
2023/10/18 11:20:19;;;;;;;4.20;1.80;;;;;;;;;;5071965;28;20918;-53
2023/10/18 11:22:50;;;;;;;3.30;2.00;;;;;;;;;;5069118;28;20448;-53
2023/10/18 11:25:30;;;;;;;2.80;2.13;;;;;;;;;;5069990;28;20561;-54
2023/10/18 11:28:10;;;;;;;2.53;2.10;;;;;;;;;;5069512;28;21013;-54
2023/10/18 11:30:39;;;;;;;2.50;2.07;;;;;;;;;;5070346;28;20439;-54
2023/10/18 11:33:17;;;;;;;3.27;2.43;;;;;;;;;;5067549;28;20448;-54
2023/10/18 11:35:48;;;;;;;2.90;2.20;;;;;;;;;;5069438;28;20448;-56
2023/10/18 11:38:19;;;;;;;3.30;2.20;;;;;;;;;;5090423;23;20649;-90
2023/10/18 11:40:50;;;;;;;2.60;1.90;;;;;;;;;;5072056;28;20433;-90
2023/10/18 11:43:25;;;;;;;3.13;2.27;;;;;;;;;;5071398;28;20498;-90
2023/10/18 11:46:05;;;;;;;2.73;2.00;;;;;;;;;;5071222;28;20475;-91
2023/10/18 11:48:33;;;;;;;3.53;2.30;;;;;;;;;;5067180;28;20550;-91
2023/10/18 11:51:06;;;;;;;3.30;1.50;;;;;;;;;;5071342;28;20463;-90
2023/10/18 11:53:35;;;;;;;2.80;2.33;;;;;;;;;;5071449;28;20803;-90
2023/10/18 11:56:03;;;;;;;2.33;1.67;;;;;;;;;;5071378;28;20448;-91
2023/10/18 11:58:33;;;;;;;2.90;2.00;;;;;;;;;;5071676;28;20468;-90
2023/10/18 12:01:05;;;;;;;2.43;1.77;;;;;;;;;;5072160;28;20455;-90
2023/10/18 12:03:33;;;;;;;2.70;2.00;;;;;;;;;;5066249;28;20456;-90
2023/10/18 12:06:03;;;;;;;3.23;2.60;;;;;;;;;;5071074;28;20477;-91
2023/10/18 12:08:33;;;;;;;2.50;2.20;;;;;;;;;;5071349;28;20473;-90
2023/10/18 12:11:04;;;;;;;2.83;2.30;;;;;;;;;;5071163;28;20827;-90
2023/10/18 12:13:33;;;;;;;2.63;2.30;;;;;;;;;;5071427;28;20449;-89
2023/10/18 12:16:01;;;;;;;3.97;1.90;;;;;;;;;;5071423;28;20519;-90
2023/10/18 12:18:29;;;;;;;3.87;2.10;;;;;;;;;;5070152;28;20484;-89
2023/10/18 12:20:56;;;;;;;3.47;2.47;;;;;;;;;;5069806;28;20475;-90
2023/10/18 12:23:25;;;;;;;2.77;2.37;;;;;;;;;;5069818;28;20926;-90
2023/10/18 12:25:52;;;;;;;3.20;1.90;;;;;;;;;;5069897;28;20480;-90
2023/10/18 12:28:27;;;;;;;2.93;2.03;;;;;;;;;;5070001;28;20464;-90
2023/10/18 12:30:56;;;;;;;3.40;2.30;;;;;;;;;;5069639;28;20444;-90
2023/10/18 12:33:26;;;;;;;3.20;2.33;;;;;;;;;;5070017;28;20882;-90
2023/10/18 12:35:56;;;;;;;3.20;1.97;;;;;;;;;;5070659;28;20433;-90
2023/10/18 12:38:31;;;;;;;4.43;3.13;;;;;;;;;;5072073;28;20546;-90
2023/10/18 12:41:01;;;;;;;2.70;2.00;;;;;;;;;;5075059;28;20546;-90
2023/10/18 12:43:32;;;;;;;3.43;1.90;;;;;;;;;;5070798;28;20669;-90
2023/10/18 12:46:04;;;;;;;4.93;3.80;;;;;;;;;;5071894;28;20487;-91
2023/10/18 12:48:32;;;;;;;3.13;2.33;;;;;;;;;;5067462;28;20518;-90
2023/10/18 12:51:07;;;;;;;10.17;7.37;;;;;;;;;;5071132;28;20536;-90
2023/10/18 12:53:41;;;;;;;4.60;3.47;;;;;;;;;;5065933;28;20964;-90
2023/10/18 12:56:20;;;;;;;2.60;2.30;;;;;;;;;;5067955;28;20482;-90
2023/10/18 12:58:54;;;;;;;3.30;2.40;;;;;;;;;;5070787;28;20459;-90
2023/10/18 13:01:30;;;;;;;2.40;1.83;;;;;;;;;;5072634;28;20440;-90
2023/10/18 13:03:57;;;;;;;3.43;2.10;;;;;;;;;;5074734;28;20459;-90
2023/10/18 13:06:30;;;;;;;3.40;2.10;;;;;;;;;;5074274;28;20480;-90
2023/10/18 13:09:15;;;;;;;4.23;2.27;;;;;;;;;;5073976;28;21043;-90
2023/10/18 13:11:46;;;;;;;2.80;2.20;;;;;;;;;;5071067;28;20436;-90
2023/10/18 13:14:14;;;;;;;3.17;2.27;;;;;;;;;;5074266;28;20521;-90
2023/10/18 13:16:42;;;;;;;2.80;2.40;;;;;;;;;;5074079;28;20472;-90
2023/10/18 13:19:10;;;;;;;2.70;2.30;;;;;;;;;;5073920;28;20444;-90
2023/10/18 13:21:39;;;;;;;3.23;2.27;;;;;;;;;;5074084;28;20531;-90
2023/10/18 13:24:17;;;;;;;2.13;1.83;;;;;;;;;;5074096;28;20447;-90
2023/10/18 13:26:47;;;;;;;2.87;2.30;;;;;;;;;;5074044;28;21002;-90
2023/10/18 13:29:27;;;;;;;2.30;1.90;;;;;;;;;;5074150;28;20982;-90
2023/10/18 13:31:57;;;;;;;4.50;2.47;;;;;;;;;;5073785;28;20440;-90
2023/10/18 13:34:26;;;;;;;3.07;2.27;;;;;;;;;;5073718;28;20444;-90
2023/10/18 13:36:55;;;;;;;3.70;2.73;;;;;;;;;;5073683;28;20959;-89
2023/10/18 13:39:23;;;;;;;3.07;2.50;;;;;;;;;;5072841;28;21095;-90
2023/10/18 13:41:52;;;;;;;3.57;2.30;;;;;;;;;;5072983;28;20501;-90
2023/10/18 13:44:20;;;;;;;12.90;3.50;;;;;;;;;;5072009;28;20449;-90
2023/10/18 13:46:50;;;;;;;4.73;2.50;;;;;;;;;;5072469;28;20529;-90
2023/10/18 13:49:18;;;;;;;3.57;2.60;;;;;;;;;;5072431;28;20456;-90
2023/10/18 13:51:45;;;;;;;6.10;3.20;;;;;;;;;;5072319;28;20447;-90
2023/10/18 13:54:13;;;;;;;3.03;2.73;;;;;;;;;;5072980;28;20570;-90
2023/10/18 13:56:40;;;;;;;4.30;2.60;;;;;;;;;;5073479;28;20479;-89
2023/10/18 13:59:09;;;;;;;52.47;10.83;;;;;;;;;;5070621;28;20449;-90
2023/10/18 14:01:38;;;;;;;5.37;2.70;;;;;;;;;;5073577;28;20938;-90
2023/10/18 14:04:08;;;;;;;3.90;3.10;;;;;;;;;;5073192;28;20483;-91
2023/10/18 14:06:35;;;;;;;6.80;3.03;;;;;;;;;;5073283;28;20476;-90
2023/10/18 14:09:04;;;;;;;3.97;2.97;;;;;;;;;;5072950;28;20468;-90
2023/10/18 14:11:33;;;;;;;4.50;3.00;;;;;;;;;;5068536;28;20507;-90
2023/10/18 14:14:00;;;;;;;3.50;2.80;;;;;;;;;;5073040;28;20429;-90
2023/10/18 14:16:29;;;;;;;4.90;4.37;;;;;;;;;;5078330;28;20420;-89
2023/10/18 14:18:57;;;;;;;3.43;2.80;;;;;;;;;;5084362;28;20885;-90
2023/10/18 14:21:24;;;;;;;5.20;3.00;;;;;;;;;;5076097;28;20449;-90
2023/10/18 14:23:59;;;;;;;5.80;4.40;;;;;;;;;;5073302;28;20480;-89
2023/10/18 14:26:27;;;;;;;9.33;4.20;;;;;;;;;;5072678;28;20823;-89
2023/10/18 14:28:55;;;;;;;3.73;3.27;;;;;;;;;;5072933;28;20461;-88
2023/10/18 14:31:23;;;;;;;7.07;4.53;;;;;;;;;;5072345;28;20475;-89
2023/10/18 14:33:53;;;;;;;4.20;2.97;;;;;;;;;;5072483;28;20452;-89
2023/10/18 14:36:23;;;;;;;4.90;3.33;;;;;;;;;;5071753;28;20444;-88
2023/10/18 14:38:50;;;;;;;5.57;3.70;;;;;;;;;;5071827;28;20712;-88
2023/10/18 14:41:20;;;;;;;3.40;2.80;;;;;;;;;;5072501;28;20468;-89
2023/10/18 14:43:50;;;;;;;5.83;3.20;;;;;;;;;;5072051;28;20518;-88
2023/10/18 14:46:19;;;;;;;4.97;3.40;;;;;;;;;;5072201;28;20480;-89
2023/10/18 14:48:47;;;;;;;4.23;3.00;;;;;;;;;;5072108;28;20514;-88
2023/10/18 14:51:16;;;;;;;7.33;3.60;;;;;;;;;;5071900;28;20445;-88
2023/10/18 14:53:44;;;;;;;4.47;3.37;;;;;;;;;;5071977;28;20853;-89
2023/10/18 14:56:14;;;;;;;3.90;3.00;;;;;;;;;;5072043;28;20650;-89
2023/10/18 14:58:42;;;;;;;3.93;3.23;;;;;;;;;;5072225;28;20473;-88
2023/10/18 15:01:13;;;;;;;4.17;2.63;;;;;;;;;;5069534;28;20505;-89
2023/10/18 15:03:40;;;;;;;4.23;3.30;;;;;;;;;;5071827;28;20472;-89
2023/10/18 15:06:08;;;;;;;4.30;3.83;;;;;;;;;;5072068;28;20471;-90
2023/10/18 15:08:37;;;;;;;5.37;4.00;;;;;;;;;;5071678;28;20468;-89
2023/10/18 15:11:12;;;;;;;5.80;3.93;;;;;;;;;;5070994;28;20432;-88
2023/10/18 15:13:40;;;;;;;4.77;3.70;;;;;;;;;;5070740;28;20454;-89
2023/10/18 15:16:10;;;;;;;6.53;3.50;;;;;;;;;;5067958;28;20652;-89